ウィーン の空港の天気 - METARとTAF

ウィーン国際空港 ( LOWW / VIE ) - オーストリア ウィーン
飛行場実況気象(Metar)
観測時間05/07 23:50 CEST (05/07 21:50 UTC)
風向・風速北西 7m/s
視程10km以上
天気現象
少しの雲 雲底高度 1520m
気温7℃
湿度66%
気圧1019hPa
METARLOWW 072150Z 31013KT 9999 FEW050 07/01 Q1019 NOSIG
過去の天気等 Google飛行場航空写真 Wunderground天気予報

過去48時間のMETAR

飛行場予報(TAF)
発表時間: 5/07 22:15 CEST (5/07 20:15 UTC)
予報対象時間: 7日23時 CEST ~ 9日5時 CEST
風向・風速西北西 5m/s
視程10km以上
なし
8日16時 CEST ~ 8日19時 CEST に徐々に
風向・風速南南東 4m/s
TAF LOWW 072015Z 0721/0903 30010KT CAVOK TX16/0814Z TN05/0803Z
BECMG 0814/0817 16007KT